Baycrest, New York
Current Conditions -  °F | °C
As of 10:53 AM on Tuesday 21 Oct 2014 (Local Time) from KFRG Reporting Station
Clear Clear  
Wind Chill: 66°   Ceiling: Unl
Heat Index: 66°   Visibility: 10mi
Dew Point: 49°   Wind: 10mph
Humidity: 54%   Direction: 140°SE
Pressure: 29.89"   Gusts: NA
Location:  40.8966°N, 73.4362°W
Report Text: KFRG 211453Z 14009KT 10SM CLR 19/09 A2989 RMK AO2 SLP122 T01890094 58006
Loading
Personal Weather Stations






























Interactive Weather Map
Tropical Storm Tracking
New forecast layout! Learn more

10-Day Weather Forecast

Advertisements
Track Severe Weather on mobile